This is the latest recevied weather packets stored in our database for station/object OK2ZI. If no packets are shown the sender has not sent any weather packets the latest 10 day(s).
| Time | Temp. | Humidity | Pressure | Rain* | Wind** | Luminosity | Snow |
|---|---|---|---|---|---|---|---|
| 1777736286 | 23.33° C | 26% | 1018 hPa | 0 mm | - | - | - |
| 1777736166 | 22.78° C | 27% | 1018 hPa | 0 mm | - | - | - |
| 1777735447 | 23.33° C | 26% | 1018 hPa | 0 mm | - | - | - |
| 1777733647 | 23.89° C | 25% | 1018 hPa | 0 mm | - | - | - |
| 1777733527 | 23.33° C | 27% | 1018 hPa | 0 mm | - | - | - |
| 1777732566 | 22.78° C | 27% | 1018 hPa | 0 mm | - | - | - |
| 1777731486 | 23.33° C | 26% | 1018 hPa | 0 mm | - | - | - |
| 1777730424 | 22.78° C | 29% | 1019 hPa | 0 mm | - | - | - |
| 1777729566 | 22.78° C | 27% | 1019 hPa | 0 mm | - | - | - |
| 1777728625 | 22.78° C | 26% | 1019 hPa | 0 mm | - | - | - |
| 1777727167 | 24.44° C | 26% | 1019 hPa | 0 mm | - | - | - |
| 1777727047 | 24.44° C | 26% | 1019 hPa | 0 mm | - | - | - |
| 1777725847 | 23.33° C | 26% | 1019 hPa | 0 mm | - | - | - |
| 1777725612 | 22.78° C | 27% | 1020 hPa | 0 mm | - | - | - |
| 1777725486 | 22.78° C | 28% | 1020 hPa | 0 mm | - | - | - |
| 1777725249 | 22.78° C | 28% | 1020 hPa | 0 mm | - | - | - |
| 1777724412 | 21.11° C | 32% | 1020 hPa | 0 mm | - | - | - |
| 1777723813 | 21.67° C | 31% | 1020 hPa | 0 mm | - | - | - |
| 1777723687 | 21.67° C | 31% | 1020 hPa | 0 mm | - | - | - |
| 1777723331 | 21.67° C | 34% | 1020 hPa | 0 mm | - | - | - |
| 1777722490 | 21.11° C | 37% | 1020 hPa | 0 mm | - | - | - |
| 1777721047 | 20.56° C | 38% | 1020 hPa | 0 mm | - | - | - |
| 1777720826 | 20.56° C | 38% | 1020 hPa | 0 mm | - | - | - |
| 1777720447 | 21.11° C | 33% | 1020 hPa | 0 mm | - | - | - |
| 1777720326 | 21.11° C | 34% | 1020 hPa | 0 mm | - | - | - |
* Rain latest hour (hover to see other rain measurements)
** Current wind speed in m/s (hover to see current wind gust speed)